createdAt,value
2022-10-18T00:02:34.659Z,17.67
2022-10-18T00:07:36.243Z,25.63
2022-10-18T00:12:38.053Z,22.05
2022-10-18T00:17:40.085Z,23.67
2022-10-18T00:22:41.732Z,23.02
2022-10-18T00:27:43.179Z,25.92
2022-10-18T00:32:44.705Z,24.90
2022-10-18T00:37:46.196Z,23.30
2022-10-18T00:42:47.712Z,23.70
2022-10-18T00:47:57.332Z,26.05
2022-10-18T00:53:04.001Z,24.55
2022-10-18T00:58:06.139Z,27.98
2022-10-18T01:03:08.790Z,31.75
2022-10-18T01:08:12.923Z,26.30
2022-10-18T01:13:29.766Z,32.70
2022-10-18T01:18:53.587Z,24.80
2022-10-18T01:24:07.820Z,31.60
2022-10-18T01:29:33.621Z,29.83
2022-10-18T01:34:39.202Z,26.10
2022-10-18T01:39:45.110Z,30.52
2022-10-18T01:44:48.551Z,17.42
2022-10-18T01:50:00.442Z,36.20
2022-10-18T01:55:03.549Z,24.33
2022-10-18T02:00:14.017Z,27.63
2022-10-18T02:05:18.434Z,28.73
2022-10-18T02:15:35.751Z,27.90
2022-10-18T02:20:38.995Z,25.13
2022-10-18T02:25:40.640Z,30.08
2022-10-18T02:30:53.453Z,27.58
2022-10-18T02:36:03.516Z,31.90
2022-10-18T02:41:05.168Z,35.28
2022-10-18T02:46:06.751Z,31.75
2022-10-18T02:51:08.164Z,34.58
2022-10-18T02:56:09.660Z,43.92
2022-10-18T03:01:11.194Z,31.95
2022-10-18T03:06:12.725Z,40.15
2022-10-18T03:11:14.263Z,28.15
2022-10-18T03:16:15.946Z,22.40
2022-10-18T03:21:17.367Z,34.83
2022-10-18T03:26:18.824Z,34.05
2022-10-18T03:31:20.506Z,35.30
2022-10-18T03:36:22.007Z,32.88
2022-10-18T03:41:23.500Z,31.10
2022-10-18T03:46:25.005Z,38.47
2022-10-18T03:51:26.434Z,44.97
2022-10-18T03:56:27.871Z,42.45
2022-10-18T04:01:29.500Z,33.55
2022-10-18T04:06:31.154Z,40.72
2022-10-18T04:11:32.720Z,47.75
2022-10-18T04:16:34.197Z,39.00
2022-10-18T04:21:35.803Z,41.40
2022-10-18T04:26:37.520Z,33.80
2022-10-18T04:31:38.977Z,31.95
2022-10-18T04:36:40.457Z,36.08
2022-10-18T04:41:41.996Z,30.35
2022-10-18T04:46:43.408Z,40.05
2022-10-18T04:51:44.869Z,33.33
2022-10-18T04:56:46.495Z,35.67
2022-10-18T05:01:48.003Z,34.95
2022-10-18T05:06:49.571Z,37.03
2022-10-18T05:11:51.457Z,37.22
2022-10-18T05:16:53.047Z,32.33
2022-10-18T05:21:54.540Z,35.53
2022-10-18T05:26:55.985Z,31.65
2022-10-18T05:31:57.404Z,36.35
2022-10-18T05:36:59.961Z,32.90
2022-10-18T05:42:02.313Z,37.30
2022-10-18T05:47:03.816Z,36.03
2022-10-18T05:52:05.521Z,39.95
2022-10-18T05:57:07.104Z,48.83
2022-10-18T06:02:11.194Z,44.40
2022-10-18T06:07:12.784Z,42.85
2022-10-18T06:12:14.318Z,46.13
2022-10-18T06:17:15.784Z,43.53
2022-10-18T06:22:17.261Z,44.38
2022-10-18T06:27:18.767Z,55.97
2022-10-18T06:32:20.258Z,44.92
2022-10-18T06:37:21.686Z,43.47
2022-10-18T06:42:23.135Z,47.85
2022-10-18T06:47:24.565Z,45.13
2022-10-18T06:52:26.284Z,51.90
2022-10-18T06:57:27.776Z,44.45
2022-10-18T07:02:29.496Z,43.55
2022-10-18T07:07:31.999Z,42.88
2022-10-18T07:12:34.695Z,43.30
2022-10-18T07:17:36.237Z,39.28
2022-10-18T07:22:40.908Z,39.30
2022-10-18T07:27:43.343Z,34.03
2022-10-18T07:32:44.869Z,37.08
2022-10-18T07:37:46.505Z,30.33
2022-10-18T07:42:47.910Z,29.30
2022-10-18T07:47:55.109Z,37.28
2022-10-18T07:52:56.612Z,37.30
2022-10-18T07:58:00.282Z,30.73
2022-10-18T08:03:01.805Z,36.33
2022-10-18T08:08:05.745Z,30.73
2022-10-18T08:13:09.538Z,28.17
2022-10-18T08:18:11.181Z,32.67
2022-10-18T08:23:12.796Z,31.85
2022-10-18T08:28:14.238Z,26.08
2022-10-18T08:33:15.691Z,21.55
2022-10-18T08:38:18.828Z,34.22
2022-10-18T08:43:31.576Z,21.27
2022-10-18T08:48:41.094Z,23.08
2022-10-18T08:54:18.314Z,20.25
2022-10-18T08:59:23.283Z,20.17
2022-10-18T09:04:36.170Z,19.58
2022-10-18T09:09:55.917Z,17.48
2022-10-18T09:15:07.865Z,15.65
2022-10-18T09:20:17.634Z,14.75
2022-10-18T09:25:26.010Z,16.98
2022-10-18T09:30:45.561Z,15.75
2022-10-18T09:36:08.983Z,16.67
2022-10-18T09:41:24.668Z,13.93
2022-10-18T09:46:32.357Z,15.50
2022-10-18T09:51:37.004Z,14.93
2022-10-18T09:56:48.803Z,12.63
2022-10-18T10:01:50.385Z,20.08
2022-10-18T10:06:54.441Z,13.30
2022-10-18T10:11:57.420Z,15.52
2022-10-18T10:17:03.802Z,15.90
2022-10-18T10:22:14.252Z,11.57
2022-10-18T10:27:34.306Z,16.30
2022-10-18T10:32:47.842Z,11.48
2022-10-18T10:37:53.722Z,18.10
2022-10-18T10:43:13.012Z,18.55
2022-10-18T10:48:22.244Z,15.18
2022-10-18T10:53:29.700Z,12.95
2022-10-18T10:58:37.802Z,11.45
2022-10-18T11:03:46.814Z,10.45
2022-10-18T11:08:51.572Z,6.57
2022-10-18T11:14:25.664Z,10.90
2022-10-18T11:20:02.061Z,12.57
2022-10-18T11:25:05.362Z,10.60
2022-10-18T11:30:45.272Z,14.60
2022-10-18T11:36:04.595Z,9.32
2022-10-18T11:41:24.853Z,16.85
2022-10-18T11:46:47.769Z,8.20
2022-10-18T11:52:08.723Z,12.80
2022-10-18T11:57:16.588Z,9.32
2022-10-18T12:02:39.640Z,9.60
2022-10-18T12:07:55.474Z,9.48
2022-10-18T12:13:02.108Z,8.35
2022-10-18T12:18:10.312Z,9.23
2022-10-18T12:23:17.821Z,8.15
2022-10-18T12:28:54.276Z,8.70
2022-10-18T12:34:00.244Z,11.10
2022-10-18T12:39:06.764Z,16.27
2022-10-18T12:44:20.959Z,14.00
2022-10-18T12:49:31.994Z,7.45
2022-10-18T12:54:39.259Z,12.95
2022-10-18T12:59:41.383Z,8.90
2022-10-18T13:04:42.784Z,11.77
2022-10-18T13:10:15.277Z,12.15
2022-10-18T13:15:44.107Z,9.75
2022-10-18T13:21:23.452Z,9.35
2022-10-18T13:27:04.054Z,10.40
2022-10-18T13:32:45.277Z,10.93
2022-10-18T13:37:59.371Z,10.95
2022-10-18T13:48:31.254Z,16.13
2022-10-18T13:54:14.609Z,14.90
2022-10-18T14:05:25.078Z,10.07
2022-10-18T14:10:57.423Z,8.18
2022-10-18T14:16:37.497Z,10.35
2022-10-18T14:21:47.716Z,7.03
2022-10-18T14:27:11.245Z,10.93
2022-10-18T14:32:31.353Z,16.75
2022-10-18T14:37:36.729Z,11.27
2022-10-18T14:42:48.326Z,8.75
2022-10-18T14:47:49.857Z,11.02
2022-10-18T14:52:51.312Z,11.10
2022-10-18T14:57:52.773Z,10.18
2022-10-18T15:02:54.385Z,7.55
2022-10-18T15:07:59.604Z,12.95
2022-10-18T15:13:09.831Z,6.88
2022-10-18T15:18:22.015Z,6.85
2022-10-18T15:23:32.327Z,10.15
2022-10-18T15:28:49.486Z,16.52
2022-10-18T15:33:51.879Z,11.63
2022-10-18T15:38:53.756Z,11.25
2022-10-18T15:44:17.986Z,14.60
2022-10-18T15:49:44.261Z,9.40
2022-10-18T15:54:45.883Z,6.50
2022-10-18T16:00:18.121Z,8.38
2022-10-18T16:05:20.826Z,6.53
2022-10-18T16:10:22.377Z,11.35
2022-10-18T16:15:24.033Z,7.43
2022-10-18T16:20:26.762Z,7.65
2022-10-18T16:25:28.209Z,7.57
2022-10-18T16:30:32.488Z,9.52
2022-10-18T16:35:35.517Z,5.70
2022-10-18T16:40:40.367Z,9.20
2022-10-18T16:45:43.031Z,11.57
2022-10-18T16:50:44.780Z,6.97
2022-10-18T16:55:46.282Z,10.77
2022-10-18T17:00:48.068Z,12.95
2022-10-18T17:05:49.547Z,8.13
2022-10-18T17:10:54.010Z,11.00
2022-10-18T17:21:00.613Z,14.48
2022-10-18T17:26:05.565Z,11.20
2022-10-18T17:31:16.719Z,11.20
2022-10-18T17:36:18.216Z,8.68
2022-10-18T17:41:20.274Z,14.10
2022-10-18T17:46:23.487Z,14.77
2022-10-18T17:51:25.016Z,10.07
2022-10-18T17:56:31.043Z,15.15
2022-10-18T18:01:32.839Z,13.68
2022-10-18T18:06:38.946Z,11.32
2022-10-18T18:11:43.722Z,7.60
2022-10-18T18:16:47.222Z,9.80
2022-10-18T18:21:49.173Z,5.30
2022-10-18T18:26:52.862Z,7.07
2022-10-18T18:31:54.302Z,4.47
2022-10-18T18:36:55.764Z,5.55
2022-10-18T18:41:57.188Z,6.53
2022-10-18T18:46:58.917Z,3.60
2022-10-18T18:52:00.425Z,10.25
2022-10-18T18:57:05.200Z,6.22
2022-10-18T19:02:06.698Z,13.52
2022-10-18T19:07:08.307Z,5.40
2022-10-18T19:12:09.938Z,7.28
2022-10-18T19:17:11.361Z,12.20
2022-10-18T19:22:12.817Z,3.95
2022-10-18T19:27:14.274Z,8.38
2022-10-18T19:32:18.505Z,5.85
2022-10-18T19:37:20.116Z,7.28
2022-10-18T19:42:24.220Z,5.97
2022-10-18T19:47:27.584Z,5.20
2022-10-18T19:52:29.053Z,4.97
2022-10-18T19:57:30.572Z,5.30
2022-10-18T20:02:32.309Z,7.30
2022-10-18T20:07:34.726Z,8.25
2022-10-18T20:12:36.488Z,4.45
2022-10-18T20:17:37.997Z,4.38
2022-10-18T20:22:39.532Z,6.70
2022-10-18T20:27:41.017Z,4.82
2022-10-18T20:32:42.708Z,4.35
2022-10-18T20:37:44.208Z,6.28
2022-10-18T20:42:45.670Z,5.70
2022-10-18T20:47:47.169Z,3.60
2022-10-18T20:52:51.170Z,4.63
2022-10-18T20:57:52.607Z,6.88
2022-10-18T21:02:58.010Z,5.30
2022-10-18T21:07:59.469Z,5.55
2022-10-18T21:13:00.977Z,6.32
2022-10-18T21:18:02.408Z,6.07
2022-10-18T21:23:04.350Z,9.30
2022-10-18T21:28:05.765Z,6.35
2022-10-18T21:33:07.981Z,8.27
2022-10-18T21:38:09.498Z,12.40
2022-10-18T21:43:11.780Z,7.88
2022-10-18T21:48:13.282Z,5.60
2022-10-18T21:53:16.531Z,8.85
2022-10-18T21:58:18.103Z,2.33
2022-10-18T22:03:23.192Z,9.18
2022-10-18T22:08:24.736Z,6.75
2022-10-18T22:13:27.401Z,6.00
2022-10-18T22:18:29.175Z,9.60
2022-10-18T22:23:32.905Z,6.57
2022-10-18T22:28:35.368Z,8.33
2022-10-18T22:38:43.238Z,7.50
2022-10-18T22:43:45.355Z,2.90
2022-10-18T22:48:47.336Z,7.07
2022-10-18T22:53:49.194Z,6.43
2022-10-18T22:58:50.897Z,7.03
2022-10-18T23:03:58.105Z,5.82
2022-10-18T23:09:04.777Z,6.97
2022-10-18T23:14:07.399Z,2.42
2022-10-18T23:19:14.876Z,4.57
2022-10-18T23:24:16.374Z,5.13
2022-10-18T23:29:17.855Z,3.03
2022-10-18T23:34:19.352Z,4.82
2022-10-18T23:39:20.959Z,6.75
2022-10-18T23:44:22.383Z,4.85
2022-10-18T23:49:23.824Z,13.02
2022-10-18T23:54:25.243Z,8.35
2022-10-18T23:59:27.328Z,5.43
